Flight Track Log - Related Links

Times and Time Zones

All times are in EDT time to prevent confusion due to time zone crossing. See the SWA1223 flight status page for this flight to view local times or setup timezone preferences in your user account.

Time Position Orientation Groundspeed Altitude Reporting Facility
EDT Latitude Longitude Course Direction KTS MPH feet Rate Location/Type
Sat 12:17:21 PM 39.2833 -94.6500 106° East 180 207 2,600  Level Kansas City TRACON
Sat 12:18:15 PM 39.2500 -94.6000 131° Southeast 259 298 4,300 1,789 Climbing Kansas City TRACON
Sat 12:19:15 PM 39.1833 -94.5833 169° South 273 314 6,000 1,700 Climbing Kansas City TRACON
Sat 12:20:15 PM 39.1000 -94.5833 180° South 262 302 7,700 2,250 Climbing Kansas City TRACON
Sat 12:21:23 PM 39.0211 -94.5697 172° South 279 321 10,800 2,672 Climbing Kansas City Center
Sat 12:22:23 PM 38.9292 -94.5603 175° South 338 389 13,400 2,826 Climbing Kansas City Center
Sat 12:23:24 PM 38.8125 -94.5475 175° South 375 432 16,500 2,810 Climbing Kansas City Center
Sat 12:24:29 PM 38.7069 -94.5361 175° South 398 458 19,300 2,571 Climbing Kansas City Center
Sat 12:25:30 PM 38.5967 -94.5250 175° South 414 476 21,900 2,777 Climbing Kansas City Center
Sat 12:26:30 PM 38.4664 -94.5111 175° South 419 482 24,900 2,274 Climbing Kansas City Center
Sat 12:27:34 PM 38.3500 -94.4989 175° South 435 501 26,600 1,790 Climbing Kansas City Center
Sat 12:28:34 PM 38.2272 -94.4164 152° Southeast 463 533 28,600 1,918 Climbing Kansas City Center
Sat 12:29:36 PM 38.1483 -94.2817 127° Southeast 493 567 30,500 1,887 Climbing Kansas City Center
Sat 12:30:38 PM 38.0597 -94.1211 125° Southeast 497 572 32,500 1,902 Climbing Kansas City Center
Sat 12:31:39 PM 37.9764 -93.9736 126° Southeast 497 572 34,400 1,680 Climbing Kansas City Center
Sat 12:32:43 PM 37.8944 -93.8342 127° Southeast 496 571 36,000 1,200 Climbing Kansas City Center
Sat 12:33:44 PM 37.8133 -93.6928 126° Southeast 496 571 36,900 984 Climbing Kansas City Center
Sat 12:34:45 PM 37.7306 -93.5483 126° Southeast 503 579 38,000 1,033 Climbing Kansas City Center
Sat 12:35:46 PM 37.6481 -93.4083 127° Southeast 501 577 39,000 480 Climbing Kansas City Center
Sat 12:36:50 PM 37.5669 -93.2686 126° Southeast 497 572 39,000  Level Kansas City Center
Sat 12:37:50 PM 37.4850 -93.1283 126° Southeast 497 572 39,000  Level Kansas City Center
Sat 12:38:50 PM 37.3833 -92.9586 127° Southeast 503 579 39,000  Level Kansas City Center
Sat 12:39:54 PM 37.3014 -92.8208 127° Southeast 498 573 39,000  Level Kansas City Center
Sat 12:40:54 PM 37.2183 -92.6811 127° Southeast 499 574 39,000  Level Kansas City Center
Sat 12:41:58 PM 37.1353 -92.5428 127° Southeast 498 573 39,000  Level Kansas City Center
Sat 12:42:58 PM 37.0519 -92.4036 127° Southeast 500 575 39,000  Level Kansas City Center
Sat 12:43:59 PM 36.9681 -92.2647 127° Southeast 500 575 39,000  Level Kansas City Center
Sat 12:45:02 PM 36.8844 -92.1264 127° Southeast 500 575 39,000  Level Kansas City Center
Sat 12:45:44 PM 36.8147 -92.0131 128° Southeast 498 573 39,000  Level Memphis Center
Sat 12:46:44 PM 36.7331 -91.8792 127° Southeast 498 573 39,000  Level Memphis Center
Sat 12:47:44 PM 36.6472 -91.7381 127° Southeast 498 573 39,000  Level Memphis Center
Sat 12:48:44 PM 36.5653 -91.6047 127° Southeast 498 573 39,000  Level Memphis Center
Sat 12:49:44 PM 36.4789 -91.4692 128° Southeast 498 573 39,000  Level Memphis Center
Sat 12:50:44 PM 36.3925 -91.3314 128° Southeast 498 573 39,000  Level Memphis Center
Sat 12:51:44 PM 36.3081 -91.1964 128° Southeast 498 573 39,000  Level Memphis Center
Sat 12:52:44 PM 36.2256 -91.0619 127° Southeast 498 573 39,000  Level Memphis Center
Sat 12:53:44 PM 36.1386 -90.9275 129° Southeast 498 573 39,000  Level Memphis Center
Sat 12:54:44 PM 36.0558 -90.7933 127° Southeast 498 573 39,000  Level Memphis Center
Sat 12:55:44 PM 35.9706 -90.6622 129° Southeast 493 567 39,000  Level Memphis Center
Sat 12:56:44 PM 35.8853 -90.5236 127° Southeast 493 567 39,000  Level Memphis Center
Sat 12:57:44 PM 35.8000 -90.3903 128° Southeast 493 567 39,000  Level Memphis Center
Sat 12:58:44 PM 35.7164 -90.2572 128° Southeast 493 567 39,000  Level Memphis Center
Sat 12:59:44 PM 35.6350 -90.1219 126° Southeast 488 562 39,000  Level Memphis Center
Sat 01:00:44 PM 35.5469 -89.9869 129° Southeast 494 568 39,000  Level Memphis Center
Sat 01:01:44 PM 35.4611 -89.8522 128° Southeast 499 574 39,000  Level Memphis Center
Sat 01:02:44 PM 35.3728 -89.7128 128° Southeast 499 574 39,000  Level Memphis Center
Sat 01:03:44 PM 35.2761 -89.5661 129° Southeast 505 581 39,000  Level Memphis Center
Sat 01:04:44 PM 35.1875 -89.4297 128° Southeast 512 589 39,000  Level Memphis Center
Sat 01:05:44 PM 35.0986 -89.2961 129° Southeast 512 589 39,000  Level Memphis Center
Sat 01:06:44 PM 35.0100 -89.1606 129° Southeast 512 589 39,000  Level Memphis Center
Sat 01:07:44 PM 34.9189 -89.0275 130° Southeast 512 589 39,000  Level Memphis Center
Sat 01:08:44 PM 34.8381 -88.9072 129° Southeast 512 589 39,000  Level Memphis Center
Sat 01:09:44 PM 34.7511 -88.7747 129° Southeast 512 589 39,000  Level Memphis Center
Sat 01:10:44 PM 34.6636 -88.6453 129° Southeast 507 583 39,000  Level Memphis Center
Sat 01:11:44 PM 34.5764 -88.5208 130° Southeast 507 583 39,000  Level Memphis Center
Sat 01:12:44 PM 34.4781 -88.3742 129° Southeast 499 574 39,000  Level Memphis Center
Sat 01:13:44 PM 34.3906 -88.2481 130° Southeast 499 574 39,000  Level Memphis Center
Sat 01:14:44 PM 34.3006 -88.1119 129° Southeast 504 580 39,000  Level Memphis Center
Sat 01:16:15 PM 34.1772 -87.9356 130° Southeast 503 579 39,000  Level Atlanta Center
Sat 01:17:15 PM 34.0872 -87.8036 129° Southeast 503 579 39,000  Level Atlanta Center
Sat 01:18:15 PM 33.9972 -87.6744 130° Southeast 503 579 39,000  Level Atlanta Center
Sat 01:19:15 PM 33.9092 -87.5456 129° Southeast 503 579 39,000  Level Atlanta Center
Sat 01:20:15 PM 33.8211 -87.4169 129° Southeast 498 573 39,000  Level Atlanta Center
Sat 01:21:15 PM 33.7325 -87.2886 130° Southeast 493 567 39,000  Level Atlanta Center
Sat 01:22:15 PM 33.6481 -87.1656 129° Southeast 488 562 39,000  Level Atlanta Center
Sat 01:23:15 PM 33.5614 -87.0428 130° Southeast 488 562 39,000  Level Atlanta Center
Sat 01:24:15 PM 33.4747 -86.9203 130° Southeast 488 562 39,000  Level Atlanta Center
Sat 01:25:15 PM 33.3878 -86.7956 130° Southeast 488 562 39,000  Level Atlanta Center
Sat 01:26:15 PM 33.3047 -86.6761 130° Southeast 482 555 39,000  Level Atlanta Center
Sat 01:27:15 PM 33.2117 -86.5417 130° Southeast 476 548 39,000  Level Atlanta Center
Sat 01:28:15 PM 33.1239 -86.4300 133° Southeast 476 548 39,000  Level Atlanta Center
Sat 01:29:15 PM 33.0408 -86.3036 128° Southeast 476 548 39,000  Level Atlanta Center
Sat 01:30:15 PM 32.9511 -86.1800 131° Southeast 476 548 39,000  Level Atlanta Center
Sat 01:31:15 PM 32.8636 -86.0567 130° Southeast 483 556 39,000  Level Atlanta Center
Sat 01:32:15 PM 32.7778 -85.9361 130° Southeast 488 562 39,000  Level Atlanta Center
Sat 01:33:15 PM 32.6878 -85.8133 131° Southeast 488 562 39,000  Level Atlanta Center
Sat 01:34:15 PM 32.6017 -85.6933 130° Southeast 488 562 39,000  Level Atlanta Center
Sat 01:35:15 PM 32.5136 -85.5758 132° Southeast 488 562 39,000  Level Atlanta Center
Sat 01:36:15 PM 32.4272 -85.4564 131° Southeast 488 562 39,000  Level Atlanta Center
Sat 01:37:15 PM 32.3389 -85.3394 132° Southeast 488 562 39,000  Level Atlanta Center
Sat 01:39:27 PM 32.1456 -85.0811 131° Southeast 481 554 39,000  Level Jacksonville Center
Sat 01:40:27 PM 32.0578 -84.9639 131° Southeast 476 548 39,000  Level Jacksonville Center
Sat 01:41:27 PM 31.9719 -84.8469 131° Southeast 476 548 39,000  Level Jacksonville Center
Sat 01:42:27 PM 31.8858 -84.7350 132° Southeast 476 548 39,000  Level Jacksonville Center
Sat 01:43:27 PM 31.7958 -84.6158 132° Southeast 476 548 39,000  Level Jacksonville Center
Sat 01:44:27 PM 31.7097 -84.4969 130° Southeast 476 548 39,000  Level Jacksonville Center
Sat 01:45:27 PM 31.6192 -84.3783 132° Southeast 481 554 39,000 -400 Level Jacksonville Center
Sat 01:46:27 PM 31.5244 -84.2622 134° Southeast 481 554 38,200 -900 Descending Jacksonville Center
Sat 01:47:27 PM 31.4317 -84.1539 135° Southeast 476 548 37,200 -600 Descending Jacksonville Center
Sat 01:48:27 PM 31.3469 -84.0528 134° Southeast 476 548 37,000 -500 Descending Jacksonville Center
Sat 01:49:27 PM 31.2561 -83.9425 134° Southeast 476 548 36,200 -850 Descending Jacksonville Center
Sat 01:50:27 PM 31.1631 -83.8344 135° Southeast 476 548 35,300 -950 Descending Jacksonville Center
Sat 01:51:27 PM 31.0719 -83.7244 134° Southeast 471 542 34,300 -950 Descending Jacksonville Center
Sat 01:52:27 PM 30.9806 -83.6194 135° Southeast 471 542 33,400 -950 Descending Jacksonville Center
Sat 01:53:27 PM 30.8892 -83.5122 135° Southeast 466 536 32,400 -1,000 Descending Jacksonville Center
Sat 01:54:27 PM 30.8000 -83.4053 134° Southeast 466 536 31,400 -1,550 Descending Jacksonville Center
Sat 01:55:27 PM 30.7064 -83.2986 136° Southeast 461 531 29,300 -2,200 Descending Jacksonville Center
Sat 01:56:27 PM 30.6169 -83.1919 134° Southeast 461 531 27,000 -1,150 Descending Jacksonville Center
Sat 01:57:27 PM 30.5253 -83.0856 135° Southeast 461 531 27,000  Level Jacksonville Center
Sat 01:58:27 PM 30.4356 -82.9817 135° Southeast 461 531 27,000 -500 Level Jacksonville Center
Sat 01:59:27 PM 30.3458 -82.8758 134° Southeast 456 525 26,000 -1,000 Descending Jacksonville Center
Sat 02:00:27 PM 30.2561 -82.7747 136° Southeast 456 525 25,000 -500 Descending Jacksonville Center
Sat 02:01:27 PM 30.1683 -82.6739 135° Southeast 456 525 25,000  Level Jacksonville Center
Sat 02:02:27 PM 30.0783 -82.5733 136° Southeast 456 525 25,000  Level Jacksonville Center
Sat 02:03:27 PM 29.9903 -82.4728 135° Southeast 451 519 25,000  Level Jacksonville Center
Sat 02:04:27 PM 29.8814 -82.4111 154° Southeast 436 502 25,000  Level Jacksonville Center
Sat 02:05:27 PM 29.7686 -82.3567 157° South 436 502 25,000  Level Jacksonville Center
Sat 02:06:27 PM 29.6472 -82.2953 156° South 436 502 25,000  Level Jacksonville Center
Sat 02:07:27 PM 29.5342 -82.2433 158° South 436 502 25,000 -700 Level Jacksonville Center
Sat 02:08:27 PM 29.4211 -82.1917 158° South 436 502 23,600 -2,000 Descending Jacksonville Center
Sat 02:09:27 PM 29.3164 -82.1375 156° South 436 502 21,000 -2,550 Descending Jacksonville Center
Sat 02:10:27 PM 29.2117 -82.0883 158° South 419 482 18,500 -2,500 Descending Jacksonville Center
Sat 02:11:27 PM 29.1092 -82.0369 156° South 413 475 16,000 -2,450 Descending Jacksonville Center
Sat 02:12:27 PM 29.0108 -81.9928 159° South 403 464 13,600 -2,250 Descending Jacksonville Center
Sat 02:13:27 PM 28.9208 -81.9533 159° South 391 450 11,500 -1,300 Descending Jacksonville Center
Sat 02:14:27 PM 28.8492 -81.8781 137° Southeast 359 413 11,000 -789 Descending Jacksonville Center
Sat 02:14:43 PM 28.8333 -81.8333 112° Southeast 350 403 10,500 -1,244 Descending Orlando TRACON
Sat 02:15:49 PM 28.7833 -81.7500 124° Southeast 319 367 9,300 -744 Descending Orlando TRACON
Sat 02:16:44 PM 28.7333 -81.6667 124° Southeast 304 350 9,000 -157 Descending Orlando TRACON
Sat 02:17:44 PM 28.6833 -81.5833 124° Southeast 297 342 9,000  Level Orlando TRACON
Sat 02:18:50 PM 28.6500 -81.5000 114° Southeast 274 315 9,000  Level Orlando TRACON
Sat 02:19:50 PM 28.6000 -81.4333 130° Southeast 276 318 9,000 -300 Level Orlando TRACON
Sat 02:20:50 PM 28.5333 -81.4167 168° South 246 283 8,400 -905 Descending Orlando TRACON
Sat 02:21:56 PM 28.4667 -81.4167 180° South 251 289 7,100 -1,143 Descending Orlando TRACON
Sat 02:22:56 PM 28.3833 -81.4167 180° South 249 287 6,000 -1,289 Descending Orlando TRACON
Sat 02:23:57 PM 28.3167 -81.4167 180° South 243 280 4,500 -1,488 Descending Orlando TRACON
Sat 02:24:57 PM 28.2667 -81.4000 164° South 239 275 3,000 -1,000 Descending Orlando TRACON
Sat 02:25:51 PM 28.2667 -81.3333 90° East 203 234 2,600 -526 Descending Orlando TRACON
Sat 02:26:51 PM 28.3167 -81.3333 360° North 188 216 2,000 -744 Descending Orlando TRACON
Sat 02:27:52 PM 28.3667 -81.3333 360° North 159 183 1,100 -843 Descending Orlando TRACON
Sat 02:28:52 PM 28.4000 -81.3333 360° North 135 155 300 -800 Descending Orlando TRACON
Sat 02:30:00 PM 28.4167 -81.3000 24° Northeast  Level FlightAware Approximate
Sat 02:37:00 PM 28.4294 -81.3090 24° Northeast  Level Estimated
Sat 02:38:00 PM 28.4294 -81.3090 24° Northeast  Level Estimated
Sat 02:39:00 PM 28.4294 -81.3090 24° Northeast  Level Estimated
Sat 02:40:00 PM 28.4294 -81.3090 24° Northeast  Level Estimated

Login

Don't have an account? Register now (free) for customized features, flight alerts, and more!